• Join FlightAware (Why Join?)
  • Login
  • US Flag 
06:46PM EDT


 

Airport Tracker/Info


-or-


 

Live Flight TrackerFlight Track Log ✈ AWE1452 ✈ 02-May-2013 ✈ MDPC / PUJ - KPHL

Flight Track Log - Related Links

Times and Time Zones

All times are in EDT time to prevent confusion due to time zone crossing. See the AWE1452 flight status page for this flight to view local times or setup timezone preferences in your user account.

Time Position Orientation Groundspeed Altitude Reporting Facility
EDT Latitude Longitude Course Direction KTS MPH feet Rate Location/Type
05:20PM 18.7199 -68.6715 305° West  Level FlightAware Approximate
05:21PM 18.7815 -68.7797 298° West  Level FlightAware Approximate
05:22PM 18.8374 -68.8915 298° West  Level FlightAware Approximate
05:23PM 18.8934 -69.0034 298° West  Level FlightAware Approximate
05:24PM 18.9510 -69.1143 301° West  Level FlightAware Approximate
05:25PM 19.0127 -69.2228 300° West  Level FlightAware Approximate
05:26PM 19.0734 -69.3320 300° West  Level FlightAware Approximate
05:27PM 19.1319 -69.4567 296° West  Level FlightAware Approximate
05:28PM 19.1942 -69.5792 302° West  Level FlightAware Approximate
05:29PM 19.2648 -69.6969 302° West  Level FlightAware Approximate
05:29PM 19.2175 -69.2247 327° Northwest 471 542 25,400  Level Miami Center
05:30PM 19.3940 -69.7088 349° North  Level FlightAware Approximate
05:30PM 19.3247 -69.2869 331° Northwest 458 527 27,300  Level Miami Center
05:31PM 19.5160 -69.7544 332° Northwest  Level FlightAware Approximate
05:31PM 19.4322 -69.3644 326° Northwest 458 527 28,700  Level Miami Center
05:32PM 19.6262 -69.8297 327° Northwest  Level FlightAware Approximate
05:32PM 19.5339 -69.4425 324° Northwest 458 527 31,900  Level Miami Center
05:33PM 19.7365 -69.9060 327° Northwest  Level FlightAware Approximate
05:33PM 19.6128 -69.5283 314° West 431 496 33,900  Level Miami Center
05:34PM 19.8443 -69.9858 327° Northwest  Level FlightAware Approximate
05:34PM 19.6897 -69.6189 312° West 420 483 35,000  Level Miami Center
05:35PM 19.9546 -70.0621 327° Northwest  Level FlightAware Approximate
05:35PM 19.7689 -69.7094 313° West 420 483 36,400  Level Miami Center
05:36PM 19.8519 -69.7975 315° West 420 483 37,300 780 Climbing Miami Center
05:37PM 19.9311 -69.8903 312° West 426 490 38,000 300 Climbing Miami Center
05:38PM 20.0122 -69.9811 314° West 426 490 38,000  Level Miami Center
05:39PM 20.0914 -70.0764 312° West 426 490 38,000  Level Miami Center
05:40PM 20.1742 -70.1650 315° West 426 490 38,000  Level Miami Center
05:41PM 20.2511 -70.2583 311° West 426 490 38,000  Level Miami Center
05:42PM 20.3400 -70.3381 320° Northwest 426 490 38,000  Level Miami Center
05:43PM 20.4653 -70.3431 358° North 401 461 38,000  Level Miami Center
05:44PM 20.5919 -70.3328 North 425 489 38,000  Level Miami Center
05:45PM 20.7167 -70.3269 North 438 504 38,000  Level Miami Center
05:46PM 20.8433 -70.3186 North 448 516 38,000  Level Miami Center
05:47PM 20.9744 -70.3100 North 453 521 38,000  Level Miami Center
05:48PM 21.0989 -70.2997 North 458 527 38,000  Level Miami Center
05:49PM 21.2258 -70.2933 North 458 527 38,000  Level Miami Center
05:50PM 21.3506 -70.2853 North 458 527 38,000  Level Miami Center
05:51PM 21.4775 -70.2789 North 458 527 38,000  Level Miami Center
05:52PM 21.6064 -70.2703 North 458 527 38,000  Level Miami Center
05:53PM 21.7456 -70.2614 North 458 527 38,000  Level Miami Center
05:54PM 21.8706 -70.2550 North 458 527 38,000  Level Miami Center
05:55PM 21.9806 -70.2453 North 469 540 38,000  Level Miami Center
05:56PM 22.1053 -70.2389 North 457 526 38,000  Level Miami Center
05:57PM 22.2303 -70.2303 North 450 518 38,000  Level Miami Center
05:58PM 22.3528 -70.2219 North 440 506 38,000  Level Miami Center
05:59PM 22.4756 -70.2158 North 440 506 38,000  Level Miami Center
06:00PM 22.5964 -70.2097 North 435 501 38,000  Level Miami Center
06:01PM 22.7169 -70.2011 North 435 501 38,000  Level Miami Center
06:02PM 22.8375 -70.1950 North 435 501 38,000  Level Miami Center
06:03PM 22.9581 -70.1842 North 440 506 38,000  Level Miami Center
06:04PM 23.0786 -70.1736 North 440 506 38,000  Level Miami Center
06:05PM 23.1994 -70.1672 North 440 506 38,000  Level Miami Center
06:06PM 23.3181 -70.1611 North 434 499 38,000  Level Miami Center
06:07PM 23.4386 -70.1525 North 434 499 38,000  Level Miami Center
06:08PM 23.5614 -70.1481 North 434 499 38,000  Level Miami Center
06:09PM 23.6800 -70.1397 North 434 499 38,000  Level Miami Center
06:10PM 23.8006 -70.1308 North 434 499 38,000  Level Miami Center
06:11PM 23.9236 -70.1289 North 434 499 38,000  Level Miami Center
06:12PM 24.0422 -70.1181 North 434 499 38,000  Level Miami Center
06:13PM 24.1625 -70.1069 North 434 499 38,000  Level Miami Center
06:14PM 24.2878 -70.1072 360° North 439 505 38,000  Level Miami Center
06:15PM 24.4017 -70.0850 10° North 432 497 38,000  Level Miami Center
06:16PM 24.5292 -70.0917 357° North 438 504 38,000  Level Miami Center
06:17PM 24.6519 -70.0828 North 438 504 38,000  Level Miami Center
06:18PM 24.7744 -70.0714 North 438 504 38,000  Level Miami Center
06:19PM 24.8972 -70.0644 North 438 504 38,000  Level Miami Center
06:20PM 25.0203 -70.0622 North 438 504 38,000  Level Miami Center
06:21PM 25.0000 -70.0500 348° North 420 483 38,000  Level New York Oceanic (ODAPS)
06:28PM 26.0329 -70.2909 348° North 420 483 38,000  Level FlightAware Transoceanic
06:29PM 26.1477 -70.3179 348° North 420 483 38,000  Level FlightAware Transoceanic
06:30PM 26.2624 -70.3450 348° North 420 483 38,000  Level FlightAware Transoceanic
06:31PM 26.3772 -70.3721 348° North 420 483 38,000  Level FlightAware Transoceanic
06:32PM 26.4919 -70.3993 348° North 420 483 38,000  Level FlightAware Transoceanic
06:33PM 26.6066 -70.4265 348° North 420 483 38,000  Level FlightAware Transoceanic
06:34PM 26.7213 -70.4538 348° North 420 483 38,000  Level FlightAware Transoceanic
06:35PM 26.8361 -70.4812 348° North 420 483 38,000  Level FlightAware Transoceanic
06:36PM 26.9508 -70.5086 348° North 420 483 38,000  Level FlightAware Transoceanic
06:37PM 27.0655 -70.5360 348° North 420 483 38,000  Level FlightAware Transoceanic
06:38PM 27.1802 -70.5636 348° North 420 483 38,000  Level FlightAware Transoceanic
06:39PM 27.2949 -70.5911 348° North 420 483 38,000  Level FlightAware Transoceanic
06:40PM 27.4096 -70.6188 348° North 420 483 38,000  Level FlightAware Transoceanic
06:41PM 27.5242 -70.6465 348° North 420 483 38,000  Level FlightAware Transoceanic
06:42PM 27.6389 -70.6742 348° North 420 483 38,000  Level FlightAware Transoceanic
06:43PM 27.7536 -70.7020 348° North 420 483 38,000  Level FlightAware Transoceanic
06:44PM 27.8683 -70.7299 348° North 420 483 38,000  Level FlightAware Transoceanic
06:45PM 27.9829 -70.7578 348° North 420 483 38,000  Level FlightAware Transoceanic
06:46PM 28.0976 -70.7858 348° North 420 483 38,000  Level FlightAware Transoceanic
06:47PM 28.2122 -70.8138 348° North 420 483 38,000  Level FlightAware Transoceanic
06:48PM 28.3269 -70.8419 348° North 420 483 38,000  Level FlightAware Transoceanic
06:49PM 28.4415 -70.8701 348° North 420 483 38,000  Level FlightAware Transoceanic
06:50PM 28.5561 -70.8983 348° North 420 483 38,000  Level FlightAware Transoceanic
06:51PM 28.6708 -70.9266 348° North 420 483 38,000  Level FlightAware Transoceanic
06:52PM 28.7854 -70.9549 348° North 420 483 38,000  Level FlightAware Transoceanic
06:53PM 28.9000 -70.9833 348° North 420 483 38,000  Level FlightAware Transoceanic
06:54PM 29.0168 -71.0121 348° North 420 483 38,000  Level FlightAware Transoceanic
06:54PM 28.9000 -70.9833 348° North 406 467 38,000  Level New York Oceanic (ODAPS)
06:55PM 29.1335 -71.0409 348° North 420 483 38,000  Level FlightAware Transoceanic
06:56PM 29.2502 -71.0697 348° North 420 483 38,000  Level FlightAware Transoceanic
06:57PM 29.3670 -71.0987 348° North 420 483 38,000  Level FlightAware Transoceanic
06:58PM 29.4837 -71.1276 348° North 420 483 38,000  Level FlightAware Transoceanic
06:59PM 29.6004 -71.1567 348° North 420 483 38,000  Level FlightAware Transoceanic
07:00PM 29.7171 -71.1858 348° North 420 483 38,000  Level FlightAware Transoceanic
07:01PM 29.8005 -71.2067 348° North 406 467 38,000  Level FlightAware Transoceanic
07:02PM 29.9130 -71.2349 348° North 406 467 38,000  Level FlightAware Transoceanic
07:03PM 30.0256 -71.2632 348° North 406 467 38,000  Level FlightAware Transoceanic
07:04PM 30.1381 -71.2915 348° North 406 467 38,000  Level FlightAware Transoceanic
07:05PM 30.2506 -71.3199 348° North 406 467 38,000  Level FlightAware Transoceanic
07:06PM 30.3631 -71.3483 348° North 406 467 38,000  Level FlightAware Transoceanic
07:07PM 30.4756 -71.3769 348° North 406 467 38,000  Level FlightAware Transoceanic
07:08PM 30.5881 -71.4054 348° North 406 467 38,000  Level FlightAware Transoceanic
07:09PM 30.7006 -71.4341 348° North 406 467 38,000  Level FlightAware Transoceanic
07:10PM 30.8131 -71.4628 348° North 406 467 38,000  Level FlightAware Transoceanic
07:11PM 30.9256 -71.4916 348° North 406 467 38,000  Level FlightAware Transoceanic
07:12PM 31.0380 -71.5205 348° North 406 467 38,000  Level FlightAware Transoceanic
07:13PM 31.1505 -71.5494 348° North 406 467 38,000  Level FlightAware Transoceanic
07:14PM 31.2630 -71.5784 348° North 406 467 38,000  Level FlightAware Transoceanic
07:15PM 31.3754 -71.6075 348° North 406 467 38,000  Level FlightAware Transoceanic
07:16PM 31.4879 -71.6366 348° North 406 467 38,000  Level FlightAware Transoceanic
07:17PM 31.6003 -71.6658 348° North 406 467 38,000  Level FlightAware Transoceanic
07:18PM 31.7127 -71.6951 347° North 406 467 38,000  Level FlightAware Transoceanic
07:19PM 31.8252 -71.7244 347° North 406 467 38,000  Level FlightAware Transoceanic
07:20PM 31.9376 -71.7538 347° North 406 467 38,000  Level FlightAware Transoceanic
07:21PM 32.0500 -71.7833 348° North 406 467 38,000  Level FlightAware Transoceanic
07:22PM 32.1575 -71.8114 347° North 406 467 38,000  Level FlightAware Transoceanic
07:23PM 32.2649 -71.8396 347° North 406 467 38,000  Level FlightAware Transoceanic
07:24PM 32.3724 -71.8679 347° North 406 467 38,000  Level FlightAware Transoceanic
07:25PM 32.4798 -71.8962 347° North 406 467 38,000  Level FlightAware Transoceanic
07:26PM 32.5872 -71.9246 347° North 406 467 38,000  Level FlightAware Transoceanic
07:27PM 32.6947 -71.9530 347° North 406 467 38,000  Level FlightAware Transoceanic
07:28PM 32.8021 -71.9816 347° North 406 467 38,000  Level FlightAware Transoceanic
07:29PM 32.9095 -72.0102 347° North 406 467 38,000  Level FlightAware Transoceanic
07:30PM 33.0169 -72.0388 347° North 406 467 38,000  Level FlightAware Transoceanic
07:31PM 33.1243 -72.0676 347° North 406 467 38,000  Level FlightAware Transoceanic
07:32PM 33.2317 -72.0964 347° North 406 467 38,000  Level FlightAware Transoceanic
07:33PM 33.3391 -72.1252 347° North 406 467 38,000  Level FlightAware Transoceanic
07:34PM 33.4465 -72.1542 347° North 406 467 38,000  Level FlightAware Transoceanic
07:35PM 33.5539 -72.1832 347° North 406 467 38,000  Level FlightAware Transoceanic
07:36PM 33.6613 -72.2123 347° North 406 467 38,000  Level FlightAware Transoceanic
07:37PM 33.7686 -72.2415 347° North 406 467 38,000  Level FlightAware Transoceanic
07:38PM 33.8760 -72.2707 347° North 406 467 38,000  Level FlightAware Transoceanic
07:39PM 33.9860 -72.3062 345° North  Level FlightAware Approximate
07:40PM 33.9904 -72.3021 356° North  Level FlightAware Approximate
07:41PM 34.1040 -72.3119 356° North  Level FlightAware Approximate
07:41PM 34.2869 -72.3200 356° North 451 519 38,000  Level New York Center
07:42PM 34.2176 -72.3218 356° North  Level FlightAware Approximate
07:42PM 34.4014 -72.3350 354° North 411 473 38,000  Level New York Center
07:43PM 34.3311 -72.3317 356° North  Level FlightAware Approximate
07:43PM 34.4994 -72.3269 North 411 473 38,000  Level New York Center
07:44PM 34.4447 -72.3419 356° North  Level FlightAware Approximate
07:44PM 34.6344 -72.3650 347° North 460 529 38,000  Level New York Center
07:45PM 34.5582 -72.3522 356° North  Level FlightAware Approximate
07:45PM 34.7594 -72.3750 356° North 448 516 38,000  Level New York Center
07:46PM 34.6718 -72.3626 356° North  Level FlightAware Approximate
07:46PM 34.8719 -72.3925 353° North 434 499 38,000  Level New York Center
07:47PM 34.9886 -72.4050 355° North 421 484 38,000  Level New York Center
07:48PM 35.1136 -72.4103 358° North 427 491 38,000  Level New York Center
07:49PM 35.2347 -72.4078 North 427 491 38,000  Level New York Center
07:51PM 35.3558 -72.4078 360° North 427 491 38,000  Level New York Center
07:51PM 35.4725 -72.4078 360° North 422 486 38,000  Level New York Center
07:52PM 35.5914 -72.4078 360° North 422 486 38,000 -60 Level New York Center
07:53PM 35.7106 -72.4025 North 417 480 37,900 -480 Descending New York Center
07:54PM 35.8231 -72.4050 359° North 417 480 37,100 -1,200 Descending New York Center
07:55PM 35.9419 -72.4000 North 411 473 35,600 -1,560 Descending New York Center
07:56PM 36.0525 -72.4022 359° North 411 473 34,100 -840 Descending New York Center
07:57PM 36.1717 -72.3997 North 417 480 34,000 -60 Descending New York Center
07:58PM 36.2906 -72.3997 360° North 422 486 34,000  Level New York Center
07:59PM 36.4114 -72.3972 North 422 486 34,000  Level New York Center
08:00PM 36.5242 -72.3997 359° North 415 478 34,000  Level New York Center
08:01PM 36.6411 -72.3969 North 413 475 34,000  Level New York Center
08:02PM 36.7661 -72.3947 North 418 481 34,000  Level New York Center
08:03PM 36.8831 -72.3944 360° North 418 481 34,000  Level New York Center
08:04PM 37.0039 -72.3947 360° North 418 481 34,000  Level New York Center
08:05PM 37.1189 -72.3944 360° North 418 481 34,000  Level New York Center
08:06PM 37.2264 -72.4569 335° Northwest 413 475 34,000  Level New York Center
08:12PM 37.7904 -72.9909 335° Northwest 431 496 34,000  Level FlightAware ADS-B
08:13PM 37.8455 -73.0442 323° Northwest 431 496 34,000 -1,560 Level FlightAware ADS-B
08:16PM 38.1450 -73.3380 322° Northwest 417 480 28,100 -1,920 Descending FlightAware
08:17PM 38.2130 -73.4060 322° Northwest 405 466 26,300 -2,280 Descending FlightAware
08:18PM 38.2680 -73.4600 322° Northwest 392 451 24,900 -2,520 Descending FlightAware
08:18PM 38.3078 -73.4998 322° Northwest 383 441 23,900 -2,580 Descending FlightAware ADS-B
08:18PM 38.3495 -73.5413 322° Northwest 375 432 22,800 -2,040 Descending FlightAware ADS-B
08:19PM 38.3955 -73.5875 322° Northwest 367 422 21,700 -1,980 Descending FlightAware ADS-B
08:20PM 38.4393 -73.6314 322° Northwest 360 414 20,600 -2,100 Descending FlightAware ADS-B
08:20PM 38.4789 -73.6713 322° Northwest 355 409 19,500 -2,040 Descending FlightAware ADS-B
08:21PM 38.5309 -73.7233 322° Northwest 348 400 18,200 -2,040 Descending FlightAware ADS-B
08:22PM 38.6060 -73.8000 321° Northwest 350 403 15,900 -1,740 Descending FlightAware
08:22PM 38.6389 -73.8534 308° West 354 407 15,600 -300 Descending FlightAware ADS-B
08:23PM 38.6709 -73.9167 303° West 358 412 15,600  Level FlightAware ADS-B
08:23PM 38.6950 -73.9658 302° West 359 413 15,600  Level FlightAware ADS-B
08:24PM 38.7103 -73.9909 308° West 355 409 15,600  Level FlightAware ADS-B
08:24PM 38.7248 -74.0103 314° West 352 405 15,600  Level FlightAware ADS-B
08:24PM 38.7642 -74.0568 317° Northwest 353 406 15,600  Level FlightAware ADS-B
08:25PM 38.8013 -74.0994 318° Northwest 353 406 15,600  Level FlightAware ADS-B
08:25PM 38.8389 -74.1423 318° Northwest 354 407 15,600  Level FlightAware ADS-B
08:26PM 38.8758 -74.1851 318° Northwest 353 406 15,600  Level FlightAware ADS-B
08:26PM 38.9132 -74.2283 318° Northwest 352 405 15,600  Level FlightAware ADS-B
08:27PM 38.9539 -74.2750 318° Northwest 375 432 15,600  Level FlightAware ADS-B
08:28PM 38.9992 -74.3275 318° Northwest 404 465 15,600  Level FlightAware ADS-B
08:28PM 39.0423 -74.3780 318° Northwest 409 471 15,600 -300 Level FlightAware ADS-B
08:29PM 39.0823 -74.4252 318° Northwest 378 435 15,300 -1,680 Descending FlightAware ADS-B
08:30PM 39.1510 -74.5060 318° Northwest 373 429 13,100 -2,460 Descending FlightAware
08:30PM 39.1750 -74.5351 317° Northwest 377 434 12,400 -1,680 Descending FlightAware ADS-B
08:31PM 39.2520 -74.6270 317° Northwest 331 381 10,800 -1,320 Descending FlightAware
08:32PM 39.2980 -74.6800 318° Northwest 311 358 9,900 -1,200 Descending FlightAware
08:32PM 39.3300 -74.7170 318° Northwest 296 341 9,400 -1,320 Descending FlightAware
08:32PM 39.3575 -74.7507 317° Northwest 292 336 8,800 -1,320 Descending FlightAware ADS-B
08:33PM 39.3735 -74.7701 317° Northwest 286 329 8,600 -420 Descending FlightAware ADS-B
08:33PM 39.3889 -74.7886 317° Northwest 287 330 8,600  Level FlightAware ADS-B
08:34PM 39.4210 -74.8270 317° Northwest 289 333 8,600  Level FlightAware
08:34PM 39.4404 -74.8504 317° Northwest 290 334 8,600  Level FlightAware ADS-B
08:34PM 39.4552 -74.8681 317° Northwest 289 333 8,600  Level FlightAware ADS-B
08:34PM 39.4701 -74.8859 317° Northwest 289 333 8,600  Level FlightAware ADS-B
08:35PM 39.4859 -74.9050 317° Northwest 289 333 8,600  Level FlightAware ADS-B
08:35PM 39.4931 -74.9134 318° Northwest 287 330 8,600  Level FlightAware ADS-B
08:35PM 39.4967 -74.9168 324° Northwest 286 329 8,600  Level FlightAware ADS-B
08:35PM 39.5008 -74.9199 330° Northwest 282 325 8,600  Level FlightAware ADS-B
08:35PM 39.5058 -74.9227 337° Northwest 279 321 8,600 -720 Level FlightAware ADS-B
08:35PM 39.5113 -74.9246 345° North 275 316 8,500 -900 Descending FlightAware ADS-B
08:35PM 39.5151 -74.9254 351° North 272 313 8,500 -960 Level FlightAware ADS-B
08:35PM 39.5345 -74.9273 356° North 271 312 8,200 -1,380 Descending FlightAware ADS-B
08:36PM 39.5539 -74.9295 355° North 272 313 7,800 -1,440 Descending FlightAware ADS-B
08:36PM 39.5733 -74.9321 354° North 272 313 7,500 -1,380 Descending FlightAware ADS-B
08:36PM 39.5930 -74.9347 354° North 272 313 7,100 -1,380 Descending FlightAware ADS-B
08:36PM 39.6120 -74.9371 354° North 270 311 6,800 -1,260 Descending FlightAware ADS-B
08:37PM 39.6287 -74.9391 355° North 268 308 6,500 -1,440 Descending FlightAware ADS-B
08:37PM 39.6491 -74.9417 354° North 266 306 6,100 -1,500 Descending FlightAware ADS-B
08:37PM 39.6685 -74.9440 355° North 266 306 5,700 -960 Descending FlightAware ADS-B
08:37PM 39.6881 -74.9462 355° North 265 305 5,600 -240 Descending FlightAware ADS-B
08:38PM 39.7068 -74.9484 355° North 268 308 5,600 -180 Level FlightAware ADS-B
08:38PM 39.7369 -74.9517 355° North 269 310 5,500 -720 Descending FlightAware ADS-B
08:38PM 39.7578 -74.9539 355° North 267 307 5,100 -1,680 Descending FlightAware ADS-B
08:39PM 39.7820 -74.9567 355° North 262 302 4,500 -2,220 Descending FlightAware ADS-B
08:39PM 39.7983 -74.9586 355° North 259 298 3,900 -2,100 Descending FlightAware ADS-B
08:39PM 39.8167 -74.9606 355° North 249 287 3,500 -1,440 Descending FlightAware ADS-B
08:39PM 39.8279 -74.9618 355° North 240 276 3,300 -1,200 Descending FlightAware ADS-B
08:39PM 39.8333 -74.9630 350° North 238 274 3,200 -1,380 Descending FlightAware ADS-B
08:39PM 39.8381 -74.9649 343° North 237 273 3,100 -1,500 Descending FlightAware ADS-B
08:40PM 39.8424 -74.9675 335° Northwest 237 273 3,000 -1,500 Descending FlightAware ADS-B
08:40PM 39.8454 -74.9699 328° Northwest 237 273 2,900 -1,500 Descending FlightAware ADS-B
08:40PM 39.8486 -74.9736 318° Northwest 237 273 2,800 -1,620 Descending FlightAware ADS-B
08:40PM 39.8629 -74.9935 313° West 229 264 2,300 -1,440 Descending FlightAware ADS-B
08:40PM 39.8668 -75.0003 307° West 223 257 2,200 -840 Descending FlightAware ADS-B
08:40PM 39.8761 -75.0173 305° West 206 237 2,000 -780 Descending FlightAware ADS-B
08:41PM 39.8852 -75.0334 306° West 192 221 1,800 -600 Descending FlightAware ADS-B
08:41PM 39.8929 -75.0476 305° West 184 212 1,700 -240 Descending FlightAware ADS-B
08:41PM 39.8979 -75.0576 303° West 189 217 1,700  Level FlightAware ADS-B
08:41PM 39.9001 -75.0630 298° West 189 217 1,700  Level FlightAware ADS-B
08:41PM 39.9012 -75.0662 294° West 188 216 1,700 -900 Level FlightAware ADS-B
08:41PM 39.9023 -75.0701 290° West 187 215 1,600 -900 Descending FlightAware ADS-B
08:41PM 39.9030 -75.0735 285° West 185 213 1,600  Level FlightAware ADS-B
08:41PM 39.9036 -75.0792 278° West 184 212 1,600 -780 Level FlightAware ADS-B
08:41PM 39.9037 -75.0828 272° West 184 212 1,500  Descending FlightAware ADS-B
08:42PM 39.9035 -75.0866 266° West 183 211 1,600 540 Climbing FlightAware ADS-B
08:42PM 39.9027 -75.0943 262° West 182 209 1,600  Level FlightAware ADS-B
08:42PM 39.9015 -75.1022 259° West 180 207 1,600 -840 Level FlightAware ADS-B
08:42PM 39.8984 -75.1182 256° West 170 196 1,300 -960 Descending FlightAware ADS-B
08:42PM 39.8967 -75.1273 256° West 166 191 1,200 -960 Descending FlightAware ADS-B
08:42PM 39.8936 -75.1422 255° West 154 177 900 -960 Descending FlightAware ADS-B
08:43PM 39.8919 -75.1505 255° West 152 175 800 -720 Descending FlightAware ADS-B
08:43PM 39.8891 -75.1647 256° West 150 173 600 -780 Descending FlightAware ADS-B
08:43PM 39.8861 -75.1790 255° West 150 173 400 -780 Descending FlightAware ADS-B
08:43PM 39.8833 -75.1920 254° West 150 173 200 -840 Descending FlightAware ADS-B
08:44PM 39.8780 -75.2190 256° West 150 173 -300 Descending FlightAware
08:45PM 39.8730 -75.2400 253° West 150 173  Level FlightAware